Terminal Aerodrome Forecast
Issued by NWS Quad Cities IA IL

Home | Current Version | Previous Version | Text Only | Print | Product List | Glossary On
Versions: 1 2 3 4 5 6 7 8 9 10 11 12 13 14 15 16 17 18 19 20 21 22 23 24 25 26 27
000
FTUS43 KDVN 271149
TAFMLI
TAF
KMLI 271149Z 2712/2812 VRB03KT 1SM BR SCT002 BKN008
      TEMPO 2712/2714 1/4SM FG VV002
     FM271400 11006KT 4SM BR BKN010
     FM271600 12006KT P6SM BKN025
     FM272300 13007KT P6SM VCTS BKN050CB
     FM280200 06012KT 6SM BR BKN030
     FM280900 10003KT 3SM BR VCSH BKN020=

USA.gov is the U.S. government's official web portal to all federal, state and local government web resources and services.